Time;durP1;ratioP1;P1;durP2;ratioP2;P2;SDS_P1;SDS_P2;PMS_P1;PMS_P2;Temp;Humidity;BMP_temperature;BMP_pressure;BME280_temperature;BME280_humidity;BME280_pressure;Samples;Min_cycle;Max_cycle;Signal;HPM_P1;HPM_P2
2024/03/21 00:02:33;;;;;;;33.97;22.92;;;;;;;12.91;100.00;101824.97;5110992;28;20139;-67
2024/03/21 00:05:20;;;;;;;33.53;22.83;;;;;;;12.92;100.00;101830.19;5102986;28;20123;-67
2024/03/21 00:08:07;;;;;;;34.67;24.20;;;;;;;12.95;100.00;101834.31;5117253;28;20071;-68
2024/03/21 00:10:54;;;;;;;33.42;23.55;;;;;;;12.96;100.00;101842.28;5089964;28;20434;-66
2024/03/21 00:13:41;;;;;;;33.22;22.30;;;;;;;12.97;100.00;101848.56;5101030;28;20126;-67
2024/03/21 00:16:28;;;;;;;33.50;22.77;;;;;;;12.98;100.00;101855.66;5117731;28;20082;-66
2024/03/21 00:19:18;;;;;;;33.97;23.15;;;;;;;12.97;100.00;101848.56;5098588;28;20097;-68
2024/03/21 00:22:05;;;;;;;34.78;23.85;;;;;;;12.93;100.00;101856.44;5084827;28;20484;-67
2024/03/21 00:24:53;;;;;;;31.13;22.40;;;;;;;12.93;100.00;101861.09;5079944;28;20071;-67
2024/03/21 00:27:40;;;;;;;33.25;24.25;;;;;;;12.94;100.00;101860.84;5103816;28;20100;-68
2024/03/21 00:30:27;;;;;;;36.25;24.02;;;;;;;12.96;100.00;101863.31;5102998;28;20522;-68
2024/03/21 00:33:14;;;;;;;34.90;24.40;;;;;;;12.95;100.00;101862.50;5085708;28;20470;-67
2024/03/21 00:36:01;;;;;;;34.10;24.00;;;;;;;12.94;100.00;101866.31;5103127;28;20051;-66
2024/03/21 00:38:48;;;;;;;36.40;25.23;;;;;;;12.93;100.00;101866.56;5096990;28;20063;-67
2024/03/21 00:41:35;;;;;;;35.10;24.70;;;;;;;12.92;100.00;101865.75;5103306;28;20051;-66
2024/03/21 00:44:22;;;;;;;38.85;25.52;;;;;;;12.91;100.00;101861.34;5088906;28;20544;-68
2024/03/21 00:47:09;;;;;;;32.47;23.63;;;;;;;12.89;100.00;101863.53;5084854;28;20126;-67
2024/03/21 00:49:56;;;;;;;31.35;23.63;;;;;;;12.90;100.00;101875.31;5091379;28;20043;-67
2024/03/21 00:52:43;;;;;;;35.88;25.27;;;;;;;12.92;100.00;101884.06;5103531;28;20514;-67
2024/03/21 00:55:30;;;;;;;34.05;24.65;;;;;;;12.91;100.00;101876.94;5102950;28;20093;-67
2024/03/21 00:58:17;;;;;;;32.97;23.95;;;;;;;12.89;100.00;101879.09;5102088;28;20130;-66
2024/03/21 01:01:04;;;;;;;39.20;24.92;;;;;;;12.86;100.00;101891.38;5116459;28;20488;-67
2024/03/21 01:03:52;;;;;;;35.00;24.52;;;;;;;12.83;100.00;101885.63;5100542;28;20071;-67
2024/03/21 01:06:39;;;;;;;35.80;24.42;;;;;;;12.78;100.00;101884.47;5054042;28;20149;-67
2024/03/21 01:09:26;;;;;;;35.42;24.92;;;;;;;12.75;100.00;101879.53;5084650;28;20051;-67
2024/03/21 01:12:13;;;;;;;36.75;25.30;;;;;;;12.71;100.00;101872.91;5102354;28;20298;-68
2024/03/21 01:15:00;;;;;;;41.53;25.75;;;;;;;12.68;100.00;101878.91;5084310;28;20083;-67
2024/03/21 01:17:47;;;;;;;34.95;26.30;;;;;;;12.66;100.00;101881.06;5097417;28;20055;-67
2024/03/21 01:20:36;;;;;;;37.75;25.40;;;;;;;12.65;100.00;101890.34;5085385;28;20176;-68
2024/03/21 01:23:22;;;;;;;35.63;26.10;;;;;;;12.63;100.00;101892.50;5099006;28;20074;-67
2024/03/21 01:26:09;;;;;;;37.95;25.40;;;;;;;12.61;100.00;101899.31;5099071;28;20074;-67
2024/03/21 01:28:56;;;;;;;35.45;25.52;;;;;;;12.59;100.00;101894.09;5096144;28;20054;-67
2024/03/21 01:31:43;;;;;;;35.40;26.40;;;;;;;12.57;100.00;101896.25;5085836;28;20051;-68
2024/03/21 01:34:30;;;;;;;37.90;26.88;;;;;;;12.55;100.00;101895.69;5098663;28;20079;-67
2024/03/21 01:37:17;;;;;;;38.42;25.67;;;;;;;12.53;100.00;101892.38;5096535;28;20543;-67
2024/03/21 01:40:06;;;;;;;37.22;26.48;;;;;;;12.53;100.00;101892.38;5090661;28;20141;-67
2024/03/21 01:42:53;;;;;;;36.83;25.58;;;;;;;12.53;100.00;101889.63;5064654;28;20105;-69
2024/03/21 01:45:40;;;;;;;34.92;25.25;;;;;;;12.53;100.00;101881.44;5051673;28;20043;-67
2024/03/21 01:48:27;;;;;;;37.38;25.77;;;;;;;12.54;100.00;101874.91;5074701;28;20082;-66
2024/03/21 01:51:17;;;;;;;35.88;25.02;;;;;;;12.55;100.00;101879.28;5097711;28;20043;-67
2024/03/21 01:54:05;;;;;;;34.67;24.15;;;;;;;12.53;100.00;101887.75;5065394;28;20120;-66
2024/03/21 01:56:53;;;;;;;36.10;25.42;;;;;;;12.52;100.00;101885.25;5083933;28;20094;-67
2024/03/21 01:59:40;;;;;;;36.78;24.80;;;;;;;12.50;100.00;101879.22;5070523;28;20481;-65
2024/03/21 02:02:27;;;;;;;34.10;24.27;;;;;;;12.50;100.00;101871.00;5083139;28;20043;-65
2024/03/21 02:05:14;;;;;;;34.67;25.23;;;;;;;12.52;100.00;101877.06;5084156;28;20126;-65
2024/03/21 02:08:01;;;;;;;34.08;23.73;;;;;;;12.52;100.00;101875.16;5071829;28;20059;-67
2024/03/21 02:10:48;;;;;;;35.17;23.50;;;;;;;12.51;100.00;101868.03;5092165;28;20105;-66
2024/03/21 02:13:35;;;;;;;33.80;23.70;;;;;;;12.52;100.00;101871.59;5070310;28;20079;-66
2024/03/21 02:16:23;;;;;;;31.15;23.85;;;;;;;12.50;100.00;101866.38;5081495;28;20480;-66
2024/03/21 02:19:10;;;;;;;34.20;24.00;;;;;;;12.50;100.00;101871.00;5097276;28;20145;-67
2024/03/21 02:25:09;;;;;;;37.30;24.02;;;;;;;12.51;100.00;101875.41;5084236;28;20503;-66
2024/03/21 02:27:56;;;;;;;32.60;23.60;;;;;;;12.49;100.00;101863.91;5070835;28;20044;-66
2024/03/21 02:30:45;;;;;;;33.97;24.13;;;;;;;12.48;100.00;101884.09;5093766;28;20044;-67
2024/03/21 02:33:32;;;;;;;32.58;24.10;;;;;;;12.42;100.00;101858.63;5096346;28;20127;-67
2024/03/21 02:36:19;;;;;;;32.60;23.13;;;;;;;12.42;100.00;101890.59;5069346;28;20524;-67
2024/03/21 02:39:06;;;;;;;35.13;23.58;;;;;;;12.35;100.00;101875.22;5096554;28;20074;-68
2024/03/21 02:41:53;;;;;;;30.65;22.48;;;;;;;12.34;100.00;101883.69;5078542;28;20049;-67
2024/03/21 02:44:41;;;;;;;31.95;24.27;;;;;;;12.34;100.00;101900.91;5076456;28;20567;-67
2024/03/21 02:47:28;;;;;;;35.35;24.02;;;;;;;12.29;100.00;101900.84;5076902;28;20428;-67
2024/03/21 02:50:15;;;;;;;32.65;22.42;;;;;;;12.25;100.00;101902.41;5094197;28;20040;-66
2024/03/21 02:53:03;;;;;;;30.20;22.98;;;;;;;12.22;100.00;101885.69;5081391;28;20078;-66
2024/03/21 02:55:50;;;;;;;30.55;22.38;;;;;;;12.21;100.00;101895.78;5083822;28;20144;-66
2024/03/21 02:58:37;;;;;;;30.67;20.45;;;;;;;12.20;100.00;101902.34;5094613;28;20047;-66
2024/03/21 03:01:24;;;;;;;30.33;21.67;;;;;;;12.20;100.00;101905.09;5076021;28;20131;-66
2024/03/21 03:04:10;;;;;;;27.02;20.33;;;;;;;12.16;100.00;101909.38;5098938;28;20093;-66
2024/03/21 03:06:58;;;;;;;29.80;19.42;;;;;;;12.12;100.00;101924.63;5096087;28;20079;-66
2024/03/21 03:09:45;;;;;;;26.33;19.75;;;;;;;12.08;100.00;101918.84;5067606;28;20063;-66
2024/03/21 03:12:32;;;;;;;27.02;19.08;;;;;;;12.05;100.00;101913.88;5076805;28;20076;-66
2024/03/21 03:15:19;;;;;;;29.20;18.95;;;;;;;12.04;100.00;101912.22;5076586;28;20055;-67
2024/03/21 03:18:06;;;;;;;25.73;17.92;;;;;;;12.01;100.00;101918.19;5083624;28;20394;-66
2024/03/21 03:20:52;;;;;;;25.27;17.33;;;;;;;12.01;100.00;101922.84;5104924;28;20487;-66
2024/03/21 03:23:39;;;;;;;22.83;16.20;;;;;;;12.01;100.00;101917.38;5098144;28;20048;-66
2024/03/21 03:26:26;;;;;;;22.38;16.73;;;;;;;11.98;100.00;101917.84;5087095;28;20454;-66
2024/03/21 03:29:13;;;;;;;25.63;15.93;;;;;;;11.97;100.00;101924.41;5078449;28;20048;-65
2024/03/21 03:32:01;;;;;;;21.73;15.02;;;;;;;11.92;100.00;101931.44;5097352;28;20127;-66
2024/03/21 03:37:53;;;;;;;25.38;14.73;;;;;;;11.89;100.00;101942.88;5093314;28;20071;-65
2024/03/21 03:40:40;;;;;;;21.50;14.50;;;;;;;11.88;100.00;101938.50;5097685;28;20127;-66
2024/03/21 03:43:27;;;;;;;21.05;13.93;;;;;;;11.88;100.00;101935.75;5098736;28;20071;-66
2024/03/21 03:46:14;;;;;;;20.58;12.98;;;;;;;11.88;100.00;101940.38;5083277;28;20086;-65
2024/03/21 03:49:01;;;;;;;22.45;14.43;;;;;;;11.82;100.00;101952.28;5075383;28;20047;-66
2024/03/21 03:51:48;;;;;;;22.80;14.38;;;;;;;11.79;100.00;101960.97;5076684;28;20082;-66
2024/03/21 03:54:35;;;;;;;21.95;13.98;;;;;;;11.75;100.00;101963.34;5037031;28;20131;-66
2024/03/21 03:57:25;;;;;;;20.42;14.73;;;;;;;11.74;100.00;101969.91;5079358;28;20389;-66
2024/03/21 04:00:12;;;;;;;21.63;14.77;;;;;;;11.73;100.00;101976.44;5073151;28;20132;-67
2024/03/21 04:02:59;;;;;;;22.95;15.55;;;;;;;11.68;100.00;101985.34;5076616;28;20048;-66
2024/03/21 04:05:55;;;;;;;23.45;15.02;;;;;;;11.66;100.00;101978.50;5063252;28;20122;-66
2024/03/21 04:08:42;;;;;;;24.40;15.20;;;;;;;11.65;100.00;101979.56;5081313;28;20075;-66
2024/03/21 04:11:29;;;;;;;21.17;15.60;;;;;;;11.61;100.00;101978.41;5062656;28;20420;-66
2024/03/21 04:14:16;;;;;;;24.52;16.05;;;;;;;11.61;100.00;101978.41;5077109;28;20079;-67
2024/03/21 04:17:03;;;;;;;22.40;16.25;;;;;;;11.58;100.00;101987.09;5078733;28;20081;-67
2024/03/21 04:19:50;;;;;;;27.75;17.33;;;;;;;11.55;100.00;101990.31;5092106;28;20416;-67
2024/03/21 04:22:37;;;;;;;23.83;17.13;;;;;;;11.55;100.00;101976.69;5095578;28;20185;-67
2024/03/21 04:25:24;;;;;;;25.75;18.02;;;;;;;11.56;100.00;101989.25;5083021;28;20498;-67
2024/03/21 04:28:11;;;;;;;26.60;19.33;;;;;;;11.52;100.00;101989.75;5095243;28;20075;-66
2024/03/21 04:30:58;;;;;;;25.90;17.65;;;;;;;11.48;100.00;101993.19;5081546;28;20073;-67
2024/03/21 04:33:45;;;;;;;23.88;17.30;;;;;;;11.47;100.00;101997.84;5102486;28;20040;-67
2024/03/21 04:36:32;;;;;;;28.67;19.30;;;;;;;11.48;100.00;102007.66;5100114;28;20047;-67
2024/03/21 04:39:19;;;;;;;26.55;18.80;;;;;;;11.46;100.00;102015.28;5095779;28;20510;-67
2024/03/21 04:42:06;;;;;;;27.85;19.38;;;;;;;11.49;100.00;102024.88;5096322;28;20054;-67
2024/03/21 04:44:53;;;;;;;29.38;19.58;;;;;;;11.47;100.00;102027.84;5097976;28;20074;-66
2024/03/21 04:47:40;;;;;;;25.65;19.60;;;;;;;11.42;100.00;102032.38;5080063;28;20040;-67
2024/03/21 04:50:27;;;;;;;26.58;20.33;;;;;;;11.39;100.00;102027.41;5089750;28;20079;-66
2024/03/21 04:53:14;;;;;;;29.23;21.08;;;;;;;11.39;100.00;102030.97;5086576;28;20044;-66
2024/03/21 04:56:05;;;;;;;30.00;21.67;;;;;;;11.38;100.00;102039.41;5100765;28;20510;-65
2024/03/21 04:58:53;;;;;;;30.85;21.67;;;;;;;11.34;100.00;102041.78;5095008;28;20071;-66
2024/03/21 05:01:40;;;;;;;30.08;20.95;;;;;;;11.30;100.00;102036.00;5064606;28;20484;-65
2024/03/21 05:04:27;;;;;;;30.90;21.67;;;;;;;11.30;100.00;102044.19;5078229;28;20079;-66
2024/03/21 05:07:14;;;;;;;28.95;20.77;;;;;;;11.33;100.00;102042.88;5078799;28;20497;-66
2024/03/21 05:10:01;;;;;;;30.05;21.52;;;;;;;11.35;100.00;102050.78;5080826;28;20088;-66
2024/03/21 05:12:48;;;;;;;33.53;22.70;;;;;;;11.34;100.00;102055.44;5098615;28;20127;-66
2024/03/21 05:15:35;;;;;;;30.73;23.17;;;;;;;11.32;100.00;102057.56;5098602;28;20079;-66
2024/03/21 05:18:22;;;;;;;31.15;22.88;;;;;;;11.28;100.00;102065.41;5097358;28;20044;-68
2024/03/21 05:21:10;;;;;;;32.97;23.25;;;;;;;11.26;100.00;102066.72;5080381;28;20075;-66
2024/03/21 05:23:57;;;;;;;35.50;26.52;;;;;;;11.27;100.00;102076.56;5077083;28;20129;-67
2024/03/21 05:26:44;;;;;;;34.45;24.88;;;;;;;11.22;100.00;102084.66;5064893;28;20098;-66
2024/03/21 05:29:32;;;;;;;31.05;24.77;;;;;;;11.17;100.00;102090.00;5096063;28;20509;-67
2024/03/21 05:32:19;;;;;;;31.63;24.33;;;;;;;11.18;100.00;102097.09;5099083;28;20130;-66
2024/03/21 05:35:06;;;;;;;33.97;25.98;;;;;;;11.17;100.00;102095.47;5102571;27;20395;-66
2024/03/21 05:37:53;;;;;;;29.08;21.05;;;;;;;11.05;100.00;102099.03;5103913;27;20138;-66
2024/03/21 05:40:42;;;;;;;28.27;21.35;;;;;;;11.02;100.00;102096.78;5106008;28;20043;-66
2024/03/21 05:43:29;;;;;;;27.75;20.73;;;;;;;11.05;100.00;102099.03;5084690;28;20040;-67
2024/03/21 05:46:16;;;;;;;27.70;20.60;;;;;;;11.04;100.00;102105.56;5084851;28;20397;-67
2024/03/21 05:49:03;;;;;;;26.70;20.67;;;;;;;10.97;100.00;102104.88;5065404;28;20516;-66
2024/03/21 05:51:51;;;;;;;27.77;20.23;;;;;;;10.94;100.00;102115.41;5080837;28;20044;-66
2024/03/21 05:54:38;;;;;;;24.40;19.30;;;;;;;10.95;100.00;102117.91;5107977;28;20134;-68
2024/03/21 05:57:27;;;;;;;27.58;18.48;;;;;;;10.96;100.00;102135.91;5098388;28;20060;-67
2024/03/21 06:00:16;;;;;;;19.75;15.95;;;;;;;10.97;100.00;102126.69;5085656;28;20105;-67
2024/03/21 06:03:04;;;;;;;23.52;16.55;;;;;;;11.02;100.00;102132.25;5077357;28;20089;-68
2024/03/21 06:05:51;;;;;;;18.50;12.88;;;;;;;11.01;100.00;102133.28;5078668;28;20048;-67
2024/03/21 06:08:38;;;;;;;14.40;10.57;;;;;;;10.96;100.00;102144.09;5078454;28;20081;-67
2024/03/21 06:11:25;;;;;;;12.73;7.88;;;;;;;10.91;100.00;102149.44;5067761;28;20403;-67
2024/03/21 06:14:12;;;;;;;10.02;4.70;;;;;;;10.64;100.00;102144.44;5085190;28;20180;-67
2024/03/21 06:17:00;;;;;;;7.25;4.28;;;;;;;10.49;100.00;102160.44;5085656;28;20075;-67
2024/03/21 06:19:47;;;;;;;7.70;3.95;;;;;;;10.38;100.00;102166.69;5078155;28;20051;-67
2024/03/21 06:22:37;;;;;;;6.82;3.38;;;;;;;10.26;100.00;102169.34;4375103;28;10000313;-67
2024/03/21 06:25:23;;;;;;;7.32;3.42;;;;;;;10.21;100.00;102161.88;5081648;28;20135;-67
2024/03/21 06:28:11;;;;;;;6.35;3.60;;;;;;;10.28;100.00;102180.88;5074338;28;20519;-67
2024/03/21 06:30:58;;;;;;;7.30;3.92;;;;;;;10.28;100.00;102185.47;5088725;28;20734;-69
2024/03/21 06:33:45;;;;;;;6.55;3.50;;;;;;;10.26;100.00;102184.88;5051478;28;20062;-69
2024/03/21 06:36:32;;;;;;;7.10;3.97;;;;;;;10.30;100.00;102191.56;5092502;28;20071;-70
2024/03/21 06:39:20;;;;;;;7.03;4.03;;;;;;;10.31;100.00;102195.94;5092967;28;20043;-70
2024/03/21 06:42:08;;;;;;;6.97;4.22;;;;;;;10.34;100.00;102200.91;5078529;28;20455;-69
2024/03/21 06:44:55;;;;;;;7.57;4.40;;;;;;;10.31;100.00;102209.56;5093493;28;20108;-69
2024/03/21 06:47:47;;;;;;;7.63;4.97;;;;;;;10.32;100.00;102203.88;5094218;28;20839;-69
2024/03/21 06:50:34;;;;;;;8.30;5.28;;;;;;;10.35;100.00;102210.75;5083538;28;20500;-68
2024/03/21 06:53:22;;;;;;;7.13;4.78;;;;;;;10.42;100.00;102208.75;5067248;28;20144;-68
2024/03/21 06:56:09;;;;;;;11.10;5.50;;;;;;;10.43;100.00;102218.59;5077208;28;20096;-69
2024/03/21 06:58:56;;;;;;;7.97;5.28;;;;;;;10.38;100.00;102219.28;5074398;28;20510;-69
2024/03/21 07:01:43;;;;;;;10.27;5.50;;;;;;;10.32;100.00;102227.53;5072886;28;20052;-67
2024/03/21 07:04:30;;;;;;;8.23;5.78;;;;;;;10.23;100.00;102225.13;5091488;28;20456;-67
2024/03/21 07:07:17;;;;;;;10.48;6.30;;;;;;;10.15;100.00;102232.78;5060523;28;20048;-67
2024/03/21 07:10:04;;;;;;;9.32;6.05;;;;;;;10.14;100.00;102242.84;5050010;28;20083;-68
2024/03/21 07:12:51;;;;;;;9.35;5.85;;;;;;;10.08;100.00;102253.81;5090175;28;20047;-68
2024/03/21 07:15:42;;;;;;;9.60;5.80;;;;;;;10.07;100.00;102255.72;5083440;28;20415;-68
2024/03/21 07:18:30;;;;;;;8.73;6.03;;;;;;;10.14;100.00;102259.19;5083107;28;20071;-68
2024/03/21 07:21:17;;;;;;;9.10;5.90;;;;;;;10.08;100.00;102260.13;5081879;28;20090;-68
2024/03/21 07:24:04;;;;;;;8.25;5.65;;;;;;;10.00;100.00;102276.75;5082335;28;20071;-68
2024/03/21 07:26:51;;;;;;;10.95;5.88;;;;;;;10.02;100.00;102277.38;5096874;28;20047;-67
2024/03/21 07:29:38;;;;;;;8.27;5.65;;;;;;;10.12;100.00;102287.72;5082737;28;20399;-69
2024/03/21 07:32:25;;;;;;;9.32;5.65;;;;;;;10.05;100.00;102287.78;5096759;28;20048;-68
2024/03/21 07:35:12;;;;;;;9.77;5.38;;;;;;;10.09;100.00;102286.28;5097655;28;20059;-67
2024/03/21 07:37:59;;;;;;;9.13;4.85;;;;;;;10.11;100.00;102291.50;5082512;28;20055;-68
2024/03/21 07:41:00;;;;;;;9.18;4.70;;;;;;;9.98;100.00;102298.78;5083116;28;20082;-68
2024/03/21 07:43:47;;;;;;;9.82;4.05;;;;;;;9.85;100.00;102298.09;5083353;28;20052;-67
2024/03/21 07:46:34;;;;;;;7.60;3.40;;;;;;;9.72;100.00;102297.19;5096266;28;20082;-68
2024/03/21 07:49:22;;;;;;;8.35;3.38;;;;;;;9.59;100.00;102297.31;5042046;28;20039;-67
2024/03/21 07:52:09;;;;;;;7.50;3.40;;;;;;;9.55;100.00;102304.28;5083968;28;20074;-69
2024/03/21 07:54:55;;;;;;;7.75;3.22;;;;;;;9.61;100.00;102316.97;5082065;28;20048;-66
2024/03/21 07:57:42;;;;;;;12.85;3.15;;;;;;;9.65;100.00;102318.19;5082630;28;20134;-65
2024/03/21 08:00:30;;;;;;;11.70;3.40;;;;;;;9.78;100.00;102323.50;5097383;28;20466;-66
2024/03/21 08:03:16;;;;;;;5.78;2.70;;;;;;;9.83;100.00;102317.38;5097077;28;20503;-67
2024/03/21 08:06:04;;;;;;;6.65;2.67;;;;;;;9.87;100.00;102323.22;5056900;28;20083;-69
2024/03/21 08:08:51;;;;;;;7.80;2.58;;;;;;;9.94;100.00;102323.97;5080052;28;20070;-69
2024/03/21 08:11:38;;;;;;;7.13;2.38;;;;;;;9.99;100.00;102326.84;5081930;28;20051;-68
2024/03/21 08:14:25;;;;;;;6.65;2.53;;;;;;;10.03;100.00;102333.50;5081570;28;20071;-69
2024/03/21 08:17:12;;;;;;;7.85;2.67;;;;;;;9.98;100.00;102339.63;5081735;28;20147;-69
2024/03/21 08:19:59;;;;;;;9.57;2.60;;;;;;;9.89;100.00;102338.25;5081959;28;20122;-68
2024/03/21 08:22:46;;;;;;;9.63;2.55;;;;;;;9.85;100.00;102342.47;5082124;28;20457;-68
2024/03/21 08:25:35;;;;;;;8.18;2.55;;;;;;;9.85;100.00;102342.47;5100409;28;20054;-68
2024/03/21 08:28:22;;;;;;;7.82;2.45;;;;;;;9.90;100.00;102350.81;5052367;28;20044;-67
2024/03/21 08:31:09;;;;;;;7.10;2.70;;;;;;;9.94;100.00;102353.91;5066113;28;20056;-68
2024/03/21 08:33:56;;;;;;;9.45;2.83;;;;;;;9.96;100.00;102358.09;5086426;28;20112;-69
2024/03/21 08:36:43;;;;;;;10.25;3.13;;;;;;;9.86;100.00;102351.47;5086564;28;20047;-69
2024/03/21 08:39:30;;;;;;;10.05;2.97;;;;;;;9.80;100.00;102348.59;5096064;28;20047;-68
2024/03/21 08:42:17;;;;;;;6.38;2.60;;;;;;;9.75;100.00;102348.44;5082220;28;20047;-68
2024/03/21 08:45:06;;;;;;;6.18;2.50;;;;;;;9.82;100.00;102351.94;5086400;28;20164;-70
2024/03/21 08:47:53;;;;;;;9.07;2.92;;;;;;;9.93;100.00;102352.25;5087193;28;20169;-68
2024/03/21 08:50:42;;;;;;;8.98;2.45;;;;;;;10.00;100.00;102355.72;5072756;28;20044;-68
2024/03/21 08:53:30;;;;;;;8.90;2.58;;;;;;;10.01;100.00;102355.50;5071680;28;20483;-68
2024/03/21 08:56:17;;;;;;;10.20;3.10;;;;;;;10.10;100.00;102349.75;5067661;28;20419;-69
2024/03/21 08:59:04;;;;;;;8.30;2.83;;;;;;;10.13;100.00;102358.31;5085434;28;20135;-69
2024/03/21 09:01:51;;;;;;;14.20;3.05;;;;;;;10.08;100.00;102363.59;5070484;28;20483;-68
2024/03/21 09:04:38;;;;;;;9.15;2.70;;;;;;;10.10;100.00;102369.66;5071293;28;20051;-69
2024/03/21 09:07:25;;;;;;;9.93;2.95;;;;;;;10.11;100.00;102368.59;5086542;28;20047;-69
2024/03/21 09:10:12;;;;;;;13.40;3.40;;;;;;;10.14;100.00;102378.19;5079289;28;20079;-69
2024/03/21 09:12:59;;;;;;;7.72;2.65;;;;;;;10.15;100.00;102375.25;5088815;28;20495;-69
2024/03/21 09:15:47;;;;;;;9.57;3.00;;;;;;;10.13;100.00;102377.38;5084514;28;20047;-68
2024/03/21 09:18:35;;;;;;;8.75;2.65;;;;;;;10.10;100.00;102376.97;5096874;28;20127;-68
2024/03/21 09:21:22;;;;;;;7.40;2.60;;;;;;;10.15;100.00;102380.72;5099675;28;20074;-69
2024/03/21 09:24:09;;;;;;;11.50;3.00;;;;;;;10.15;100.00;102383.44;5084196;28;20043;-68
2024/03/21 09:26:56;;;;;;;7.32;2.35;;;;;;;10.24;100.00;102384.78;5100239;28;20126;-69
2024/03/21 09:29:43;;;;;;;9.63;2.75;;;;;;;10.28;100.00;102378.88;5104558;27;20043;-69
2024/03/21 09:32:30;;;;;;;8.07;2.67;;;;;;;10.23;100.00;102374.13;5083798;28;20044;-68
2024/03/21 09:35:17;;;;;;;10.75;2.55;;;;;;;10.24;100.00;102373.03;5062386;28;20087;-68
2024/03/21 09:38:04;;;;;;;10.20;2.65;;;;;;;10.29;100.00;102372.41;5071330;28;20036;-69
2024/03/21 09:40:51;;;;;;;8.95;2.50;;;;;;;10.28;100.00;102371.56;5085804;28;20104;-67
2024/03/21 09:43:38;;;;;;;10.02;2.75;;;;;;;10.27;100.00;102378.06;5096752;28;21130;-68
2024/03/21 09:46:26;;;;;;;12.35;2.88;;;;;;;10.29;100.00;102394.19;5098964;28;20570;-69
2024/03/21 09:49:14;;;;;;;8.38;2.50;;;;;;;10.29;100.00;102397.75;5082132;28;20067;-68
2024/03/21 09:52:01;;;;;;;9.18;2.60;;;;;;;10.28;100.00;102407.00;5072139;28;20040;-68
2024/03/21 09:54:49;;;;;;;8.02;2.47;;;;;;;10.26;100.00;102408.25;5059199;27;20503;-69
2024/03/21 09:57:36;;;;;;;7.47;2.20;;;;;;;10.26;100.00;102405.53;5067990;28;20036;-69
2024/03/21 10:00:23;;;;;;;11.55;2.63;;;;;;;10.27;100.00;102412.63;5083891;28;20128;-69
2024/03/21 10:03:14;;;;;;;10.18;3.25;;;;;;;10.29;100.00;102407.81;5097166;28;20419;-69
2024/03/21 10:06:06;;;;;;;10.50;3.15;;;;;;;10.28;100.00;102419.75;5081439;27;20040;-69
2024/03/21 10:08:53;;;;;;;10.57;2.80;;;;;;;10.32;100.00;102418.25;5090073;27;20178;-68
2024/03/21 10:11:45;;;;;;;8.00;3.00;;;;;;;10.31;100.00;102424.78;5069646;28;20048;-68
2024/03/21 10:14:32;;;;;;;7.10;2.47;;;;;;;10.37;100.00;102429.31;5094941;28;20089;-68
2024/03/21 10:17:19;;;;;;;9.23;3.03;;;;;;;10.42;100.00;102437.66;5093098;28;20097;-68
2024/03/21 10:20:08;;;;;;;9.75;2.42;;;;;;;10.43;100.00;102442.84;5084013;28;20079;-68
2024/03/21 10:22:56;;;;;;;6.80;2.53;;;;;;;10.43;100.00;102447.47;5082610;28;20079;-68
2024/03/21 10:25:48;;;;;;;11.63;3.10;;;;;;;10.29;100.00;102446.78;5084148;28;20066;-69
2024/03/21 10:28:35;;;;;;;9.48;2.88;;;;;;;10.23;100.00;102453.13;5082975;28;20408;-68
2024/03/21 10:31:23;;;;;;;10.98;3.03;;;;;;;10.17;100.00;102457.59;5079964;28;20079;-68
2024/03/21 10:34:11;;;;;;;12.75;2.80;;;;;;;10.21;100.00;102461.50;5097950;28;20070;-69
2024/03/21 10:36:58;;;;;;;9.60;2.30;;;;;;;10.23;100.00;102453.94;5097118;28;20044;-68
2024/03/21 10:39:46;;;;;;;7.45;2.38;;;;;;;10.24;100.00;102452.88;5070135;28;20040;-67
2024/03/21 10:42:37;;;;;;;7.15;2.35;;;;;;;10.29;100.00;102462.31;5075950;28;20128;-68
2024/03/21 10:45:24;;;;;;;8.88;2.70;;;;;;;10.25;100.00;102467.34;5049388;28;20043;-68
2024/03/21 10:48:29;;;;;;;8.35;2.40;;;;;;;10.24;100.00;102469.22;5067886;28;20063;-69
2024/03/21 10:51:21;;;;;;;8.80;2.42;;;;;;;10.27;100.00;102467.09;5087842;28;20040;-67
2024/03/21 10:54:13;;;;;;;6.75;2.53;;;;;;;10.18;100.00;102472.03;5069696;28;20089;-67
2024/03/21 10:57:00;;;;;;;10.00;2.90;;;;;;;10.20;100.00;102475.38;5096036;27;20050;-67
2024/03/21 10:59:57;;;;;;;8.65;3.00;;;;;;;10.18;100.00;102467.41;5083688;28;20237;-68
2024/03/21 11:02:49;;;;;;;13.25;3.55;;;;;;;10.14;100.00;102474.34;5086489;28;20062;-67
2024/03/21 11:05:36;;;;;;;9.75;2.80;;;;;;;10.23;100.00;102480.34;5064078;28;20415;-68
2024/03/21 11:08:29;;;;;;;7.82;2.67;;;;;;;10.29;100.00;102481.38;5091981;28;20094;-68
2024/03/21 11:11:16;;;;;;;5.72;2.30;;;;;;;10.35;100.00;102475.03;5081291;28;20112;-68
2024/03/21 11:14:09;;;;;;;6.78;2.40;;;;;;;10.42;100.00;102479.34;5098132;28;20086;-68
2024/03/21 11:16:56;;;;;;;9.60;3.03;;;;;;;10.46;100.00;102479.72;5083289;28;20044;-68
2024/03/21 11:19:43;;;;;;;7.72;2.90;;;;;;;10.50;100.00;102480.94;4398795;28;10000842;-68
2024/03/21 11:22:30;;;;;;;8.95;3.13;;;;;;;10.48;100.00;102469.41;5092146;28;20495;-68
2024/03/21 11:25:17;;;;;;;9.50;3.47;;;;;;;10.52;100.00;102472.53;5107355;28;20040;-69
2024/03/21 11:28:04;;;;;;;10.60;3.40;;;;;;;10.54;100.00;102473.16;5106598;28;20047;-69
2024/03/21 11:30:51;;;;;;;11.48;3.30;;;;;;;10.50;100.00;102464.59;5092736;28;20052;-69
2024/03/21 11:33:38;;;;;;;11.63;3.78;;;;;;;10.53;100.00;102475.03;5065973;28;20527;-69
2024/03/21 11:36:26;;;;;;;8.32;3.40;;;;;;;10.60;100.00;102464.88;5087342;28;20117;-68
2024/03/21 11:39:15;;;;;;;12.32;3.97;;;;;;;10.62;100.00;102461.94;5065361;28;20514;-67
2024/03/21 11:42:02;;;;;;;13.52;4.00;;;;;;;10.61;100.00;102465.72;5082359;28;20547;-68
2024/03/21 11:44:51;;;;;;;11.63;4.07;;;;;;;10.63;100.00;102460.84;5086656;28;20051;-68
2024/03/21 11:47:38;;;;;;;12.20;4.25;;;;;;;10.68;100.00;102460.19;5086718;28;20555;-68
2024/03/21 11:50:25;;;;;;;13.15;3.92;;;;;;;10.71;100.00;102448.84;5080769;28;20040;-68
2024/03/21 11:53:12;;;;;;;14.13;6.00;;;;;;;10.68;100.00;102460.19;5071754;28;20145;-69
2024/03/21 11:55:59;;;;;;;10.40;4.78;;;;;;;10.63;100.00;102459.00;5058721;28;20519;-68
2024/03/21 11:58:46;;;;;;;9.35;4.50;;;;;;;10.63;100.00;102461.72;5068134;28;20052;-69
2024/03/21 12:01:33;;;;;;;10.85;4.43;;;;;;;10.70;100.00;102449.88;5051309;28;20132;-69
2024/03/21 12:04:20;;;;;;;9.38;3.78;;;;;;;10.77;100.00;102458.81;5044422;28;20551;-68
2024/03/21 12:07:11;;;;;;;9.50;3.50;;;;;;;10.80;100.00;102452.91;5052427;28;20056;-68
2024/03/21 12:09:58;;;;;;;6.50;2.92;;;;;;;10.84;100.00;102454.09;5057521;28;20048;-68
2024/03/21 12:12:45;;;;;;;5.93;2.78;;;;;;;10.88;100.00;102447.97;5073730;28;20055;-67
2024/03/21 12:15:32;;;;;;;9.05;3.40;;;;;;;10.97;100.00;102453.94;5059048;28;20416;-66
2024/03/21 12:18:23;;;;;;;9.93;3.47;;;;;;;11.03;100.00;102446.72;5055102;28;20166;-68
2024/03/21 12:21:18;;;;;;;8.65;3.22;;;;;;;11.06;100.00;102454.44;5069460;28;20136;-67
2024/03/21 12:24:05;;;;;;;8.57;3.08;;;;;;;11.09;100.00;102452.09;5055657;28;20145;-66
2024/03/21 12:26:52;;;;;;;9.18;3.13;;;;;;;11.07;100.00;102453.41;5039498;28;20060;-70
2024/03/21 12:29:39;;;;;;;9.82;3.30;;;;;;;10.97;100.00;102459.41;5054729;28;20128;-68
2024/03/21 12:32:26;;;;;;;11.48;4.40;;;;;;;10.92;100.00;102467.44;5044122;28;20496;-67
2024/03/21 12:35:13;;;;;;;12.82;4.80;;;;;;;10.85;100.00;102455.78;5055682;28;20520;-67
2024/03/21 12:38:01;;;;;;;11.00;5.53;;;;;;;10.86;100.00;102473.81;5072390;28;20229;-66
2024/03/21 12:40:48;;;;;;;10.95;5.63;;;;;;;10.82;100.00;102467.13;5058352;28;20044;-67
2024/03/21 12:43:35;;;;;;;15.25;6.80;;;;;;;10.80;100.00;102461.06;5058173;28;20131;-68
2024/03/21 12:46:22;;;;;;;11.88;6.60;;;;;;;10.87;100.00;102478.19;5057075;28;20074;-68
2024/03/21 12:49:09;;;;;;;11.48;7.25;;;;;;;10.90;100.00;102472.28;5047367;28;20145;-67